createdAt,value
2023-04-12T00:01:05.641Z,100781.81
2023-04-12T00:03:34.376Z,100779.78
2023-04-12T00:06:03.252Z,100778.34
2023-04-12T00:08:35.265Z,100778.75
2023-04-12T00:11:03.772Z,100777.53
2023-04-12T00:13:31.111Z,100769.97
2023-04-12T00:15:58.303Z,100764.06
2023-04-12T00:18:26.185Z,100764.88
2023-04-12T00:20:55.706Z,100762.44
2023-04-12T00:23:22.655Z,100776.94
2023-04-12T00:25:49.628Z,100767.16
2023-04-12T00:28:17.094Z,100775.94
2023-04-12T00:30:45.783Z,100773.09
2023-04-12T00:33:12.904Z,100766.16
2023-04-12T00:35:39.861Z,100763.31
2023-04-12T00:38:10.593Z,100767.59
2023-04-12T00:40:44.731Z,100763.94
2023-04-12T00:43:18.960Z,100766.78
2023-04-12T00:45:47.773Z,100775.19
2023-04-12T00:48:16.198Z,100782.31
2023-04-12T00:50:44.755Z,100774.97
2023-04-12T00:53:14.404Z,100779.28
2023-04-12T00:55:46.176Z,100770.91
2023-04-12T00:58:14.664Z,100762.13
2023-04-12T01:00:44.755Z,100761.53
2023-04-12T01:03:13.790Z,100766.63
2023-04-12T01:05:57.808Z,100770.09
2023-04-12T01:08:34.972Z,100764.00
2023-04-12T01:11:29.217Z,100761.75
2023-04-12T01:14:11.857Z,100770.13
2023-04-12T01:16:46.141Z,100763.75
2023-04-12T01:19:34.239Z,100755.19
2023-04-12T01:22:18.122Z,100753.97
2023-04-12T01:25:00.739Z,100740.50
2023-04-12T01:27:48.633Z,100755.19
2023-04-12T01:30:18.095Z,100742.53
2023-04-12T01:32:51.508Z,100731.50
2023-04-12T01:35:21.691Z,100740.50
2023-04-12T01:37:48.930Z,100737.22
2023-04-12T01:40:19.191Z,100729.47
2023-04-12T01:42:46.297Z,100718.66
2023-04-12T01:45:13.334Z,100724.56
2023-04-12T01:47:40.434Z,100733.75
2023-04-12T01:50:48.525Z,100736.59
2023-04-12T01:53:32.440Z,100727.00
2023-04-12T01:56:08.656Z,100726.00
2023-04-12T01:58:37.609Z,100723.94
2023-04-12T02:01:06.438Z,100724.34
2023-04-12T02:03:33.791Z,100720.47
2023-04-12T02:06:02.600Z,100721.09
2023-04-12T02:08:30.076Z,100721.28
2023-04-12T02:10:57.076Z,100725.97
2023-04-12T02:13:24.569Z,100713.91
2023-04-12T02:15:54.443Z,100715.56
2023-04-12T02:18:21.792Z,100709.63
2023-04-12T02:20:49.987Z,100703.94
2023-04-12T02:23:16.898Z,100700.44
2023-04-12T02:25:46.597Z,100700.00
2023-04-12T02:28:15.586Z,100694.09
2023-04-12T02:30:42.532Z,100677.56
2023-04-12T02:33:11.853Z,100683.06
2023-04-12T02:35:39.105Z,100687.75
2023-04-12T02:38:09.615Z,100685.50
2023-04-12T02:40:43.175Z,100694.69
2023-04-12T02:43:14.808Z,100685.66
2023-04-12T02:45:47.295Z,100683.63
2023-04-12T02:48:15.077Z,100684.84
2023-04-12T02:50:43.202Z,100685.84
2023-04-12T02:53:16.485Z,100672.59
2023-04-12T02:55:47.192Z,100663.41
2023-04-12T02:58:16.637Z,100667.91
2023-04-12T03:00:50.067Z,100672.38
2023-04-12T03:03:21.803Z,100666.06
2023-04-12T03:05:53.067Z,100662.59
2023-04-12T03:08:20.474Z,100675.00
2023-04-12T03:10:52.827Z,100653.81
2023-04-12T03:13:20.344Z,100656.25
2023-04-12T03:15:55.547Z,100645.25
2023-04-12T03:18:24.074Z,100626.06
2023-04-12T03:20:53.063Z,100629.75
2023-04-12T03:23:20.753Z,100632.19
2023-04-12T03:25:54.945Z,100640.53
2023-04-12T03:28:33.129Z,100627.28
2023-04-12T03:31:02.847Z,100626.25
2023-04-12T03:33:39.494Z,100638.06
2023-04-12T03:36:09.770Z,100635.00
2023-04-12T03:38:37.289Z,100635.59
2023-04-12T03:41:07.183Z,100630.69
2023-04-12T03:43:37.700Z,100630.47
2023-04-12T03:46:15.594Z,100627.63
2023-04-12T03:48:43.988Z,100621.06
2023-04-12T03:51:12.256Z,100616.97
2023-04-12T03:53:43.960Z,100616.34
2023-04-12T03:56:14.899Z,100606.97
2023-04-12T03:58:45.038Z,100609.81
2023-04-12T04:01:13.786Z,100598.00
2023-04-12T04:03:44.892Z,100594.13
2023-04-12T04:06:23.301Z,100588.22
2023-04-12T04:08:53.506Z,100580.84
2023-04-12T04:11:21.562Z,100589.81
2023-04-12T04:13:53.106Z,100581.66
2023-04-12T04:16:20.446Z,100589.97
2023-04-12T04:18:48.579Z,100589.56
2023-04-12T04:21:19.477Z,100592.59
2023-04-12T04:23:48.536Z,100593.59
2023-04-12T04:26:16.890Z,100589.09
2023-04-12T04:28:54.818Z,100584.19
2023-04-12T04:31:28.271Z,100590.31
2023-04-12T04:33:55.517Z,100590.50
2023-04-12T04:36:30.149Z,100580.31
2023-04-12T04:38:58.179Z,100585.59
2023-04-12T04:41:41.299Z,100584.78
2023-04-12T04:44:14.351Z,100582.34
2023-04-12T04:46:54.829Z,100572.16
2023-04-12T04:49:21.815Z,100575.81
2023-04-12T04:51:48.898Z,100579.06
2023-04-12T04:54:16.722Z,100573.78
2023-04-12T04:56:44.374Z,100571.97
2023-04-12T04:59:13.922Z,100575.66
2023-04-12T05:01:43.768Z,100568.34
2023-04-12T05:04:11.337Z,100564.69
2023-04-12T05:06:38.787Z,100567.53
2023-04-12T05:09:08.775Z,100568.78
2023-04-12T05:11:41.906Z,100568.59
2023-04-12T05:14:12.616Z,100575.31
2023-04-12T05:16:40.856Z,100572.50
2023-04-12T05:19:07.871Z,100570.06
2023-04-12T05:21:34.996Z,100574.34
2023-04-12T05:24:02.221Z,100571.72
2023-04-12T05:26:33.886Z,100560.56
2023-04-12T05:29:03.019Z,100568.09
2023-04-12T05:31:29.951Z,100564.84
2023-04-12T05:33:59.660Z,100556.53
2023-04-12T05:36:31.925Z,100551.88
2023-04-12T05:38:59.122Z,100544.56
2023-04-12T05:41:26.990Z,100546.59
2023-04-12T05:43:54.170Z,100546.63
2023-04-12T05:46:21.824Z,100550.69
2023-04-12T05:48:50.755Z,100549.06
2023-04-12T05:51:22.860Z,100534.41
2023-04-12T05:53:55.431Z,100538.69
2023-04-12T05:56:23.077Z,100522.59
2023-04-12T05:58:49.978Z,100520.16
2023-04-12T06:01:19.792Z,100519.97
2023-04-12T06:03:48.383Z,100504.06
2023-04-12T06:06:15.563Z,100499.41
2023-04-12T06:08:42.930Z,100502.25
2023-04-12T06:11:12.011Z,100501.81
2023-04-12T06:13:39.753Z,100489.56
2023-04-12T06:16:07.090Z,100487.28
2023-04-12T06:18:34.731Z,100472.16
2023-04-12T06:21:02.718Z,100469.88
2023-04-12T06:23:29.780Z,100467.59
2023-04-12T06:25:56.917Z,100473.25
2023-04-12T06:28:23.973Z,100471.00
2023-04-12T06:30:53.755Z,100449.50
2023-04-12T06:33:22.961Z,100458.81
2023-04-12T06:35:50.561Z,100457.31
2023-04-12T06:38:19.333Z,100448.66
2023-04-12T06:40:47.075Z,100455.28
2023-04-12T06:43:19.281Z,100453.31
2023-04-12T06:45:46.684Z,100447.09
2023-04-12T06:48:13.759Z,100437.97
2023-04-12T06:50:40.844Z,100437.63
2023-04-12T06:53:07.873Z,100442.97
2023-04-12T06:55:36.133Z,100431.19
2023-04-12T06:58:03.119Z,100420.53
2023-04-12T07:00:30.089Z,100424.81
2023-04-12T07:02:57.583Z,100421.53
2023-04-12T07:05:24.701Z,100416.16
2023-04-12T07:07:51.566Z,100411.09
2023-04-12T07:10:18.669Z,100414.66
2023-04-12T07:12:45.829Z,100402.63
2023-04-12T07:15:12.923Z,100407.16
2023-04-12T07:17:40.234Z,100394.63
2023-04-12T07:20:08.016Z,100396.25
2023-04-12T07:22:34.892Z,100397.34
2023-04-12T07:25:02.055Z,100389.56
2023-04-12T07:27:29.005Z,100388.50
2023-04-12T07:29:58.040Z,100377.44
2023-04-12T07:32:25.655Z,100376.50
2023-04-12T07:34:53.155Z,100381.03
2023-04-12T07:37:20.352Z,100366.69
2023-04-12T07:39:47.542Z,100358.25
2023-04-12T07:42:14.657Z,100349.88
2023-04-12T07:44:41.772Z,100339.44
2023-04-12T07:47:08.879Z,100335.38
2023-04-12T07:49:35.898Z,100338.31
2023-04-12T07:52:02.818Z,100322.88
2023-04-12T07:54:29.799Z,100327.34
2023-04-12T07:57:02.535Z,100322.34
2023-04-12T07:59:30.580Z,100319.47
2023-04-12T08:01:58.011Z,100329.47
2023-04-12T08:04:25.323Z,100321.19
2023-04-12T08:06:52.489Z,100307.75
2023-04-12T08:09:19.410Z,100306.38
2023-04-12T08:11:47.384Z,100312.22
2023-04-12T08:14:15.259Z,100295.50
2023-04-12T08:16:42.306Z,100295.91
2023-04-12T08:19:09.467Z,100298.72
2023-04-12T08:21:36.525Z,100278.09
2023-04-12T08:24:03.628Z,100278.38
2023-04-12T08:26:30.597Z,100268.91
2023-04-12T08:28:58.329Z,100262.53
2023-04-12T08:31:25.631Z,100254.28
2023-04-12T08:33:52.650Z,100252.38
2023-04-12T08:36:19.668Z,100249.38
2023-04-12T08:38:46.886Z,100251.28
2023-04-12T08:41:14.826Z,100253.53
2023-04-12T08:43:46.167Z,100244.88
2023-04-12T08:46:17.475Z,100244.84
2023-04-12T08:48:54.054Z,100224.09
2023-04-12T08:51:22.339Z,100226.31
2023-04-12T08:53:49.259Z,100222.25
2023-04-12T08:56:16.930Z,100222.63
2023-04-12T08:58:50.785Z,100217.97
2023-04-12T09:01:20.749Z,100209.59
2023-04-12T09:03:49.133Z,100201.53
2023-04-12T09:06:16.375Z,100200.81
2023-04-12T09:08:57.287Z,100194.59
2023-04-12T09:11:32.308Z,100179.19
2023-04-12T09:13:59.955Z,100184.50
2023-04-12T09:16:42.746Z,100170.56
2023-04-12T09:19:10.048Z,100173.59
2023-04-12T09:21:52.456Z,100158.16
2023-04-12T09:24:19.601Z,100158.59
2023-04-12T09:26:47.520Z,100156.81
2023-04-12T09:29:28.142Z,100153.66
2023-04-12T09:32:07.656Z,100152.22
2023-04-12T09:34:36.670Z,100147.28
2023-04-12T09:37:14.806Z,100139.88
2023-04-12T09:39:43.051Z,100127.53
2023-04-12T09:42:29.979Z,100127.66
2023-04-12T09:45:02.724Z,100124.97
2023-04-12T09:47:41.034Z,100124.00
2023-04-12T09:50:10.014Z,100102.00
2023-04-12T09:52:39.234Z,100111.84
2023-04-12T09:55:11.228Z,100103.13
2023-04-12T09:57:43.895Z,100093.56
2023-04-12T10:00:20.266Z,100092.84
2023-04-12T10:02:53.214Z,100080.53
2023-04-12T10:05:28.110Z,100073.66
2023-04-12T10:07:58.193Z,100076.25
2023-04-12T10:10:28.727Z,100053.50
2023-04-12T10:12:55.875Z,100054.19
2023-04-12T10:15:23.115Z,100057.84
2023-04-12T10:17:57.591Z,100038.09
2023-04-12T10:20:28.990Z,100027.34
2023-04-12T10:22:59.256Z,100019.16
2023-04-12T10:25:30.813Z,100014.84
2023-04-12T10:28:13.494Z,100015.41
2023-04-12T10:30:40.598Z,99995.84
2023-04-12T10:33:10.901Z,100001.59
2023-04-12T10:36:00.952Z,100007.88
2023-04-12T10:38:35.271Z,99990.00
2023-04-12T10:41:22.417Z,99982.34
2023-04-12T10:43:50.466Z,99979.38
2023-04-12T10:46:39.874Z,99981.00
2023-04-12T10:49:11.015Z,99974.88
2023-04-12T10:51:38.669Z,99965.31
2023-04-12T10:54:12.451Z,99961.81
2023-04-12T10:56:43.046Z,99965.75
2023-04-12T10:59:16.382Z,99956.97
2023-04-12T11:02:05.136Z,99946.09
2023-04-12T11:04:32.333Z,99936.16
2023-04-12T11:07:11.287Z,99926.88
2023-04-12T11:10:13.837Z,99936.22
2023-04-12T11:12:41.517Z,99934.13
2023-04-12T11:15:13.674Z,99915.41
2023-04-12T11:17:56.713Z,99910.19
2023-04-12T11:20:27.575Z,99930.13
2023-04-12T11:22:55.295Z,99905.75
2023-04-12T11:25:24.797Z,99900.84
2023-04-12T11:27:54.731Z,99894.41
2023-04-12T11:30:25.582Z,99904.03
2023-04-12T11:32:52.602Z,99895.22
2023-04-12T11:35:24.380Z,99889.13
2023-04-12T11:37:51.431Z,99898.97
2023-04-12T11:40:18.435Z,99887.06
2023-04-12T11:42:47.015Z,99874.91
2023-04-12T11:45:20.187Z,99867.44
2023-04-12T11:47:47.430Z,99876.53
2023-04-12T11:50:30.021Z,99862.78
2023-04-12T11:53:11.349Z,99854.53
2023-04-12T11:55:38.638Z,99854.16
2023-04-12T11:58:05.640Z,99849.47
2023-04-12T12:00:32.692Z,99839.56
2023-04-12T12:03:07.606Z,99838.00
2023-04-12T12:05:39.288Z,99836.03
2023-04-12T12:08:07.991Z,99831.63
2023-04-12T12:10:52.436Z,99820.88
2023-04-12T12:13:27.608Z,99820.13
2023-04-12T12:15:54.863Z,99816.53
2023-04-12T12:18:27.177Z,99816.78
2023-04-12T12:20:55.705Z,99809.94
2023-04-12T12:23:33.579Z,99805.03
2023-04-12T12:26:17.950Z,99801.00
2023-04-12T12:28:56.550Z,99797.19
2023-04-12T12:31:27.937Z,99790.41
2023-04-12T12:33:58.606Z,99792.66
2023-04-12T12:36:37.684Z,99796.44
2023-04-12T12:39:11.879Z,99777.78
2023-04-12T12:41:40.403Z,99781.75
2023-04-12T12:44:08.186Z,99754.66
2023-04-12T12:49:06.090Z,99765.47
2023-04-12T12:51:33.304Z,99761.38
2023-04-12T12:54:01.069Z,99766.75
2023-04-12T12:56:28.164Z,99766.06
2023-04-12T12:58:55.152Z,99766.88
2023-04-12T13:01:22.178Z,99772.19
2023-04-12T13:03:49.224Z,99762.03
2023-04-12T13:06:16.504Z,99758.13
2023-04-12T13:08:43.435Z,99764.50
2023-04-12T13:11:10.413Z,99749.88
2023-04-12T13:13:37.551Z,99751.81
2023-04-12T13:16:04.929Z,99740.47
2023-04-12T13:18:32.051Z,99736.28
2023-04-12T13:20:58.965Z,99730.47
2023-04-12T13:23:25.938Z,99726.38
2023-04-12T13:25:53.082Z,99723.94
2023-04-12T13:28:20.727Z,99728.13
2023-04-12T13:30:48.890Z,99706.00
2023-04-12T13:33:20.047Z,99714.97
2023-04-12T13:35:48.066Z,99710.78
2023-04-12T13:38:15.368Z,99714.00
2023-04-12T13:40:42.383Z,99716.06
2023-04-12T13:43:09.394Z,99691.16
2023-04-12T13:45:36.749Z,99693.03
2023-04-12T13:48:04.051Z,99686.47
2023-04-12T13:50:33.292Z,99684.13
2023-04-12T13:53:00.349Z,99684.59
2023-04-12T13:55:27.294Z,99680.50
2023-04-12T13:57:54.396Z,99663.25
2023-04-12T14:00:21.731Z,99648.81
2023-04-12T14:02:49.068Z,99667.72
2023-04-12T14:05:16.555Z,99656.25
2023-04-12T14:07:43.643Z,99658.56
2023-04-12T14:10:11.014Z,99665.56
2023-04-12T14:12:38.118Z,99658.13
2023-04-12T14:15:06.190Z,99651.97
2023-04-12T14:17:33.399Z,99642.50
2023-04-12T14:20:00.851Z,99645.41
2023-04-12T14:22:28.071Z,99648.91
2023-04-12T14:24:55.439Z,99656.13
2023-04-12T14:27:22.492Z,99649.59
2023-04-12T14:29:49.672Z,99651.78
2023-04-12T14:32:16.970Z,99650.19
2023-04-12T14:34:44.302Z,99669.09
2023-04-12T14:37:11.472Z,99660.56
2023-04-12T14:39:38.565Z,99658.22
2023-04-12T14:42:06.344Z,99656.91
2023-04-12T14:44:33.423Z,99645.06
2023-04-12T14:47:00.525Z,99656.03
2023-04-12T14:49:29.426Z,99647.81
2023-04-12T14:51:57.789Z,99662.44
2023-04-12T14:54:24.861Z,99639.75
2023-04-12T14:56:55.520Z,99652.28
2023-04-12T14:59:24.082Z,99643.59
2023-04-12T15:01:52.784Z,99644.97
2023-04-12T15:04:20.207Z,99646.19
2023-04-12T15:06:47.562Z,99667.63
2023-04-12T15:09:17.757Z,99666.47
2023-04-12T15:11:49.566Z,99659.69
2023-04-12T15:14:18.254Z,99664.81
2023-04-12T15:16:49.267Z,99675.84
2023-04-12T15:19:21.764Z,99677.88
2023-04-12T15:21:55.259Z,99685.19
2023-04-12T15:24:23.380Z,99677.38
2023-04-12T15:26:52.971Z,99696.50
2023-04-12T15:29:22.760Z,99689.19
2023-04-12T15:31:50.669Z,99684.03
2023-04-12T15:34:17.814Z,99680.31
2023-04-12T15:36:45.874Z,99692.28
2023-04-12T15:39:14.678Z,99682.91
2023-04-12T15:41:42.725Z,99696.34
2023-04-12T15:44:14.091Z,99682.19
2023-04-12T15:46:42.291Z,99688.25
2023-04-12T15:49:10.875Z,99691.03
2023-04-12T15:51:38.430Z,99701.38
2023-04-12T15:54:06.518Z,99691.25
2023-04-12T15:56:35.087Z,99682.88
2023-04-12T15:59:02.944Z,99699.78
2023-04-12T16:01:29.911Z,99704.22
2023-04-12T16:03:57.170Z,99697.47
2023-04-12T16:06:25.350Z,99692.19
2023-04-12T16:08:54.701Z,99685.34
2023-04-12T16:11:23.774Z,99686.75
2023-04-12T16:13:53.004Z,99683.72
2023-04-12T16:16:23.068Z,99676.09
2023-04-12T16:18:51.650Z,99675.38
2023-04-12T16:21:21.214Z,99677.53
2023-04-12T16:23:50.779Z,99671.69
2023-04-12T16:26:22.996Z,99668.25
2023-04-12T16:28:51.970Z,99673.09
2023-04-12T16:31:21.111Z,99663.47
2023-04-12T16:33:52.121Z,99661.06
2023-04-12T16:36:19.443Z,99647.91
2023-04-12T16:38:46.729Z,99656.25
2023-04-12T16:41:13.908Z,99659.53
2023-04-12T16:43:43.248Z,99655.00
2023-04-12T16:46:11.946Z,99650.97
2023-04-12T16:48:41.010Z,99645.31
2023-04-12T16:51:08.140Z,99647.22
2023-04-12T16:53:36.413Z,99649.88
2023-04-12T16:56:04.619Z,99637.53
2023-04-12T16:58:33.025Z,99642.63
2023-04-12T17:01:00.086Z,99637.25
2023-04-12T17:03:27.448Z,99630.78
2023-04-12T17:05:54.817Z,99635.09
2023-04-12T17:08:22.590Z,99634.56
2023-04-12T17:10:50.056Z,99646.34
2023-04-12T17:13:19.468Z,99634.84
2023-04-12T17:15:48.235Z,99630.78
2023-04-12T17:18:15.479Z,99633.19
2023-04-12T17:20:42.971Z,99638.59
2023-04-12T17:23:10.429Z,99624.63
2023-04-12T17:25:37.875Z,99626.22
2023-04-12T17:28:05.322Z,99629.19
2023-04-12T17:30:32.626Z,99627.59
2023-04-12T17:33:01.598Z,99622.25
2023-04-12T17:35:28.986Z,99620.38
2023-04-12T17:37:56.348Z,99616.38
2023-04-12T17:40:23.499Z,99614.81
2023-04-12T17:42:50.418Z,99618.00
2023-04-12T17:45:19.303Z,99600.56
2023-04-12T17:47:46.269Z,99604.56
2023-04-12T17:50:14.228Z,99607.78
2023-04-12T17:52:42.369Z,99601.59
2023-04-12T17:55:10.359Z,99582.28
2023-04-12T17:57:37.447Z,99590.06
2023-04-12T18:00:09.481Z,99587.88
2023-04-12T18:02:40.788Z,99599.72
2023-04-12T18:05:08.106Z,99605.38
2023-04-12T18:07:35.522Z,99597.34
2023-04-12T18:10:03.292Z,99595.19
2023-04-12T18:12:30.444Z,99602.72
2023-04-12T18:14:57.351Z,99602.44
2023-04-12T18:17:26.409Z,99608.63
2023-04-12T18:19:54.562Z,99611.59
2023-04-12T18:22:21.685Z,99606.50
2023-04-12T18:24:48.719Z,99621.03
2023-04-12T18:27:15.670Z,99604.09
2023-04-12T18:29:42.636Z,99606.78
2023-04-12T18:32:09.986Z,99604.09
2023-04-12T18:34:36.995Z,99595.28
2023-04-12T18:37:05.845Z,99601.97
2023-04-12T18:39:35.405Z,99591.50
2023-04-12T18:42:02.852Z,99600.88
2023-04-12T18:44:30.504Z,99613.53
2023-04-12T18:46:57.608Z,99607.88
2023-04-12T18:49:24.739Z,99601.69
2023-04-12T18:51:53.217Z,99604.91
2023-04-12T18:54:21.082Z,99610.28
2023-04-12T18:56:48.111Z,99599.81
2023-04-12T18:59:17.674Z,99589.91
2023-04-12T19:01:46.233Z,99596.84
2023-04-12T19:04:16.571Z,99604.38
2023-04-12T19:06:45.471Z,99600.88
2023-04-12T19:09:12.581Z,99602.53
2023-04-12T19:11:39.799Z,99606.88
2023-04-12T19:14:07.621Z,99612.53
2023-04-12T19:16:36.110Z,99607.47
2023-04-12T19:19:03.498Z,99602.66
2023-04-12T19:21:31.778Z,99607.00
2023-04-12T19:23:59.401Z,99591.97
2023-04-12T19:26:28.387Z,99592.53
2023-04-12T19:28:58.230Z,99583.13
2023-04-12T19:31:25.803Z,99583.69
2023-04-12T19:33:55.490Z,99577.28
2023-04-12T19:36:24.521Z,99581.34
2023-04-12T19:38:52.216Z,99569.31
2023-04-12T19:41:20.471Z,99575.47
2023-04-12T19:43:47.678Z,99558.03
2023-04-12T19:46:15.251Z,99571.75
2023-04-12T19:48:42.830Z,99568.50
2023-04-12T19:51:09.982Z,99563.69
2023-04-12T19:53:37.200Z,99564.78
2023-04-12T19:56:04.547Z,99559.94
2023-04-12T19:58:32.104Z,99565.81
2023-04-12T20:01:03.026Z,99568.50
2023-04-12T20:03:31.399Z,99557.75
2023-04-12T20:06:04.493Z,99563.94
2023-04-12T20:08:31.987Z,99552.16
2023-04-12T20:11:02.642Z,99563.16
2023-04-12T20:13:30.839Z,99555.16
2023-04-12T20:16:00.820Z,99554.63
2023-04-12T20:18:29.746Z,99546.59
2023-04-12T20:20:59.500Z,99561.63
2023-04-12T20:23:27.277Z,99553.59
2023-04-12T20:25:55.592Z,99553.09
2023-04-12T20:28:23.458Z,99537.53
2023-04-12T20:30:50.629Z,99532.19
2023-04-12T20:33:17.731Z,99530.03
2023-04-12T20:35:44.843Z,99535.16
2023-04-12T20:38:11.866Z,99527.91
2023-04-12T20:40:39.891Z,99514.78
2023-04-12T20:43:06.930Z,99496.03
2023-04-12T20:45:34.778Z,99496.31
2023-04-12T20:48:02.327Z,99511.84
2023-04-12T20:50:30.376Z,99507.56
2023-04-12T20:52:57.894Z,99508.66
2023-04-12T20:55:32.450Z,99512.69
2023-04-12T20:58:00.846Z,99513.00
2023-04-12T21:00:29.458Z,99517.31
2023-04-12T21:02:58.362Z,99515.16
2023-04-12T21:05:27.350Z,99509.00
2023-04-12T21:07:54.880Z,99507.69
2023-04-12T21:10:22.263Z,99501.81
2023-04-12T21:12:49.978Z,99501.84
2023-04-12T21:15:21.918Z,99501.59
2023-04-12T21:17:50.578Z,99497.63
2023-04-12T21:20:18.673Z,99508.59
2023-04-12T21:22:47.996Z,99503.53
2023-04-12T21:25:16.231Z,99492.84
2023-04-12T21:27:45.920Z,99509.47
2023-04-12T21:30:14.042Z,99501.44
2023-04-12T21:32:42.989Z,99498.78
2023-04-12T21:35:11.306Z,99507.09
2023-04-12T21:37:39.448Z,99522.94
2023-04-12T21:40:09.525Z,99504.69
2023-04-12T21:42:37.993Z,99510.84
2023-04-12T21:45:06.931Z,99496.16
2023-04-12T21:47:34.080Z,99512.50
2023-04-12T21:50:01.877Z,99507.13
2023-04-12T21:52:29.131Z,99503.63
2023-04-12T21:54:56.283Z,99511.13
2023-04-12T21:57:23.477Z,99507.66
2023-04-12T21:59:50.950Z,99499.34
2023-04-12T22:02:18.463Z,99503.91
2023-04-12T22:04:45.520Z,99497.22
2023-04-12T22:07:13.092Z,99495.63
2023-04-12T22:09:41.576Z,99502.06
2023-04-12T22:12:09.384Z,99494.28
2023-04-12T22:14:36.923Z,99493.22
2023-04-12T22:17:06.055Z,99484.66
2023-04-12T22:19:33.211Z,99492.16
2023-04-12T22:22:01.525Z,99501.00
2023-04-12T22:24:29.292Z,99501.28
2023-04-12T22:26:57.417Z,99509.31
2023-04-12T22:29:25.274Z,99505.56
2023-04-12T22:31:52.641Z,99503.69
2023-04-12T22:34:19.629Z,99503.94
2023-04-12T22:36:51.620Z,99510.91
2023-04-12T22:39:20.054Z,99521.63
2023-04-12T22:41:53.027Z,99525.38
2023-04-12T22:44:22.125Z,99520.81
2023-04-12T22:46:50.763Z,99519.22
2023-04-12T22:49:19.874Z,99521.09
2023-04-12T22:51:46.912Z,99511.72
2023-04-12T22:54:13.982Z,99499.94
2023-04-12T22:56:46.956Z,99497.00
2023-04-12T22:59:18.615Z,99484.13
2023-04-12T23:01:47.029Z,99493.25
2023-04-12T23:04:15.687Z,99494.03
2023-04-12T23:06:43.899Z,99500.19
2023-04-12T23:09:12.689Z,99502.88
2023-04-12T23:11:41.080Z,99503.16
2023-04-12T23:14:09.498Z,99509.84
2023-04-12T23:16:42.294Z,99513.88
2023-04-12T23:19:09.410Z,99512.78
2023-04-12T23:21:37.070Z,99510.13
2023-04-12T23:24:05.125Z,99489.50
2023-04-12T23:26:34.518Z,99486.53
2023-04-12T23:29:04.719Z,99488.94
2023-04-12T23:31:34.281Z,99501.00
2023-04-12T23:34:05.704Z,99490.56
2023-04-12T23:36:33.825Z,99482.25
2023-04-12T23:39:01.335Z,99488.16
2023-04-12T23:41:32.212Z,99502.63
2023-04-12T23:44:00.130Z,99501.00
2023-04-12T23:46:27.767Z,99492.19
2023-04-12T23:48:54.907Z,99492.19
2023-04-12T23:51:22.524Z,99504.75
2023-04-12T23:53:49.997Z,99516.00
2023-04-12T23:56:17.129Z,99497.00
2023-04-12T23:58:44.153Z,99495.41
